Time;durP1;ratioP1;P1;durP2;ratioP2;P2;SDS_P1;SDS_P2;PMS_P1;PMS_P2;Temp;Humidity;BMP_temperature;BMP_pressure;BME280_temperature;BME280_humidity;BME280_pressure;Samples;Min_cycle;Max_cycle;Signal;HPM_P1;HPM_P2
2022/10/12 00:01:53;;;;;;;0.43;0.43;;;;;;;5.02;100.00;101436.22;5032961;28;20255;-74
2022/10/12 00:04:18;;;;;;;0.00;0.00;;;;;;;5.07;100.00;101430.88;5033082;28;20184;-74
2022/10/12 00:06:43;;;;;;;0.00;0.00;;;;;;;5.05;100.00;101438.41;5032803;28;20191;-74
2022/10/12 00:09:09;;;;;;;6.33;4.03;;;;;;;5.10;100.00;101436.88;5033082;28;20202;-74
2022/10/12 00:11:34;;;;;;;0.33;0.33;;;;;;;5.16;100.00;101431.25;5032862;28;20180;-74
2022/10/12 00:14:00;;;;;;;0.00;0.00;;;;;;;5.10;100.00;101440.41;5032916;28;20172;-74
2022/10/12 00:16:30;;;;;;;0.10;0.10;;;;;;;5.00;100.00;101443.78;5032430;28;20655;-74
2022/10/12 00:18:56;;;;;;;0.60;0.60;;;;;;;4.92;100.00;101448.78;5033244;28;20168;-74
2022/10/12 00:21:22;;;;;;;0.00;0.00;;;;;;;4.76;100.00;101442.31;5032784;28;20172;-74
2022/10/12 00:23:48;;;;;;;0.00;0.00;;;;;;;4.78;100.00;101445.63;5032813;28;20184;-73
2022/10/12 00:26:22;;;;;;;1.07;1.07;;;;;;;4.75;100.00;101446.91;5032306;28;20178;-74
2022/10/12 00:28:48;;;;;;;0.00;0.00;;;;;;;4.71;100.00;101451.19;5032801;28;20217;-74
2022/10/12 00:31:16;;;;;;;0.27;0.27;;;;;;;4.78;100.00;101453.75;5032601;28;20180;-74
2022/10/12 00:33:42;;;;;;;0.43;0.43;;;;;;;4.69;100.00;101457.94;5032582;28;20168;-74
2022/10/12 00:36:20;;;;;;;0.20;0.20;;;;;;;4.50;100.00;101449.25;5032228;28;20187;-73
2022/10/12 00:38:46;;;;;;;4.20;3.80;;;;;;;4.51;100.00;101450.88;5014640;28;20180;-74
2022/10/12 00:41:13;;;;;;;0.77;0.77;;;;;;;4.52;100.00;101449.81;5032314;28;20263;-74
2022/10/12 00:43:42;;;;;;;0.00;0.00;;;;;;;4.60;100.00;101448.56;5032208;28;20175;-74
2022/10/12 00:46:34;;;;;;;0.00;0.00;;;;;;;4.67;100.00;101441.94;5014246;28;20171;-74
2022/10/12 00:49:08;;;;;;;0.00;0.00;;;;;;;4.76;100.00;101450.44;5025287;28;20241;-74
2022/10/12 00:51:33;;;;;;;0.00;0.00;;;;;;;4.81;100.00;101441.59;5032298;28;20172;-74
2022/10/12 00:54:05;;;;;;;0.33;0.33;;;;;;;4.89;100.00;101449.28;5032005;28;20196;-74
2022/10/12 00:56:34;;;;;;;0.00;0.00;;;;;;;4.96;100.00;101444.53;5014244;28;20578;-74
2022/10/12 00:59:03;;;;;;;0.00;0.00;;;;;;;4.98;100.00;101443.19;5032200;28;20184;-74
2022/10/12 01:01:33;;;;;;;0.00;0.00;;;;;;;4.96;100.00;101447.22;5032054;28;20203;-74
2022/10/12 01:03:59;;;;;;;2.13;2.03;;;;;;;4.98;100.00;101445.09;5031743;28;20192;-74
2022/10/12 01:06:24;;;;;;;0.00;0.00;;;;;;;5.02;100.00;101447.03;5032191;28;20526;-74
2022/10/12 01:08:50;;;;;;;0.00;0.00;;;;;;;4.95;100.00;101449.13;5031851;28;20180;-74
2022/10/12 01:11:15;;;;;;;0.00;0.00;;;;;;;4.90;100.00;101450.91;5031789;28;20628;-74
2022/10/12 01:13:40;;;;;;;0.00;0.00;;;;;;;4.90;100.00;101445.50;5031813;28;20175;-74
2022/10/12 01:16:26;;;;;;;0.00;0.00;;;;;;;4.96;100.00;101456.19;5031408;28;20664;-74
2022/10/12 01:19:29;;;;;;;0.00;0.00;;;;;;;4.94;100.00;101447.50;5031764;28;20172;-74
2022/10/12 01:22:01;;;;;;;0.00;0.00;;;;;;;4.98;100.00;101448.63;5031635;28;20259;-74
2022/10/12 01:24:42;;;;;;;0.00;0.00;;;;;;;4.94;100.00;101443.97;5031477;28;20703;-75
2022/10/12 01:27:26;;;;;;;0.00;0.00;;;;;;;4.96;100.00;101439.94;5031342;28;20258;-74
2022/10/12 01:30:05;;;;;;;0.00;0.00;;;;;;;4.90;100.00;101440.91;5031040;28;20183;-74
2022/10/12 01:32:43;;;;;;;0.00;0.00;;;;;;;4.91;100.00;101441.72;5031377;28;20180;-74
2022/10/12 01:35:24;;;;;;;0.00;0.00;;;;;;;4.92;100.00;101443.38;5030150;28;20184;-75
2022/10/12 01:37:53;;;;;;;0.00;0.00;;;;;;;4.89;100.00;101441.97;5031049;28;20265;-74
2022/10/12 01:40:37;;;;;;;0.00;0.00;;;;;;;4.83;100.00;101439.47;5031250;28;20183;-74
2022/10/12 01:43:03;;;;;;;0.00;0.00;;;;;;;4.73;100.00;101438.22;5031294;28;20171;-74
2022/10/12 01:45:28;;;;;;;0.00;0.00;;;;;;;4.61;100.00;101437.50;5031171;28;20533;-74
2022/10/12 01:47:54;;;;;;;0.00;0.00;;;;;;;4.60;100.00;101438.56;5031021;28;20567;-74
2022/10/12 01:50:24;;;;;;;0.07;0.07;;;;;;;4.57;100.00;101432.84;5013356;28;20184;-74
2022/10/12 01:52:58;;;;;;;0.00;0.00;;;;;;;4.56;100.00;101431.19;5030972;28;20275;-74
2022/10/12 01:55:26;;;;;;;0.00;0.00;;;;;;;4.50;100.00;101430.31;5030683;28;20204;-74
2022/10/12 01:58:04;;;;;;;0.00;0.00;;;;;;;4.48;100.00;101427.84;5030746;28;20298;-75
2022/10/12 02:00:35;;;;;;;0.00;0.00;;;;;;;4.50;100.00;101430.31;5030949;28;20541;-74
2022/10/12 02:03:14;;;;;;;0.00;0.00;;;;;;;4.53;100.00;101424.41;5030676;28;20266;-74
2022/10/12 02:05:46;;;;;;;0.00;0.00;;;;;;;4.57;100.00;101422.00;5030771;28;20306;-74
2022/10/12 02:08:20;;;;;;;0.00;0.00;;;;;;;4.56;100.00;101421.19;5031054;28;20180;-74
2022/10/12 02:10:58;;;;;;;0.00;0.00;;;;;;;4.54;100.00;101428.75;5030853;28;20171;-74
2022/10/12 02:13:28;;;;;;;0.00;0.00;;;;;;;4.52;100.00;101420.06;5030715;28;20775;-74
2022/10/12 02:15:56;;;;;;;0.00;0.00;;;;;;;4.53;100.00;101429.00;5030672;28;20175;-74
2022/10/12 02:18:23;;;;;;;0.00;0.00;;;;;;;4.47;100.00;101426.19;5030712;28;20556;-74
2022/10/12 02:20:52;;;;;;;0.00;0.00;;;;;;;4.44;100.00;101426.69;5030525;28;20179;-74
2022/10/12 02:23:20;;;;;;;0.00;0.00;;;;;;;4.41;100.00;101413.66;5030927;28;20628;-74
2022/10/12 02:25:46;;;;;;;0.00;0.00;;;;;;;4.41;100.00;101412.84;5030169;28;20648;-74
2022/10/12 02:28:16;;;;;;;0.00;0.00;;;;;;;4.50;100.00;101421.38;5030515;28;20183;-74
2022/10/12 02:30:57;;;;;;;0.00;0.00;;;;;;;4.51;100.00;101418.41;5030130;28;20183;-74
2022/10/12 02:33:44;;;;;;;0.00;0.00;;;;;;;4.57;100.00;101416.59;5012732;28;20176;-74
2022/10/12 02:36:15;;;;;;;0.00;0.00;;;;;;;4.55;100.00;101407.91;5012521;28;20653;-75
2022/10/12 02:38:47;;;;;;;0.00;0.00;;;;;;;4.51;100.00;101404.06;5030351;28;20191;-75
2022/10/12 02:41:24;;;;;;;0.07;0.07;;;;;;;4.59;100.00;101401.75;5012640;28;20171;-75
2022/10/12 02:43:56;;;;;;;0.00;0.00;;;;;;;4.55;100.00;101402.50;5030330;28;20179;-74
2022/10/12 02:46:24;;;;;;;0.00;0.00;;;;;;;4.50;100.00;101397.03;5030080;28;20192;-74
2022/10/12 02:48:52;;;;;;;0.00;0.00;;;;;;;4.45;100.00;101403.97;5030373;28;20184;-74
2022/10/12 02:51:18;;;;;;;0.00;0.00;;;;;;;4.43;100.00;101400.69;5029396;28;20259;-74
2022/10/12 02:53:44;;;;;;;2.07;2.00;;;;;;;4.42;100.00;101395.53;5001731;28;20257;-74
2022/10/12 02:56:12;;;;;;;0.00;0.00;;;;;;;4.41;100.00;101400.13;5002824;28;20260;-74
2022/10/12 02:58:38;;;;;;;0.00;0.00;;;;;;;4.37;100.00;101395.47;4992573;28;20208;-74
2022/10/12 03:01:04;;;;;;;0.00;0.00;;;;;;;4.35;100.00;101394.91;5010210;28;20180;-74
2022/10/12 03:03:29;;;;;;;0.00;0.00;;;;;;;4.28;100.00;101394.22;5010133;28;20549;-74
2022/10/12 03:05:54;;;;;;;0.00;0.00;;;;;;;4.36;100.00;101393.84;5010218;28;20644;-73
2022/10/12 03:08:20;;;;;;;0.00;0.00;;;;;;;4.35;100.00;101398.44;5013735;28;20220;-74
2022/10/12 03:10:45;;;;;;;0.00;0.00;;;;;;;4.34;100.00;101393.22;5014612;28;20202;-75
2022/10/12 03:13:10;;;;;;;0.00;0.00;;;;;;;4.38;100.00;101397.94;5014225;28;20513;-74
2022/10/12 03:15:36;;;;;;;0.00;0.00;;;;;;;4.29;100.00;101393.16;5014064;28;20177;-74
2022/10/12 03:18:01;;;;;;;0.00;0.00;;;;;;;4.17;100.00;101391.34;5013710;28;20196;-74
2022/10/12 03:20:27;;;;;;;0.00;0.00;;;;;;;4.03;100.00;101394.63;5014213;28;20175;-74
2022/10/12 03:22:52;;;;;;;0.00;0.00;;;;;;;4.04;100.00;101393.56;5014099;28;20172;-75
2022/10/12 03:25:17;;;;;;;0.00;0.00;;;;;;;3.91;100.00;101386.59;5014309;28;20180;-74
2022/10/12 03:27:43;;;;;;;0.00;0.00;;;;;;;3.92;100.00;101392.81;5013842;28;20180;-75
2022/10/12 03:30:10;;;;;;;0.00;0.00;;;;;;;3.99;100.00;101393.47;5014098;28;20168;-75
2022/10/12 03:32:35;;;;;;;0.00;0.00;;;;;;;4.04;100.00;101391.66;5013718;28;20315;-74
2022/10/12 03:35:01;;;;;;;0.00;0.00;;;;;;;4.04;100.00;101383.56;5013898;28;20164;-75
2022/10/12 03:37:26;;;;;;;0.00;0.00;;;;;;;3.89;100.00;101376.00;5013488;28;20695;-74
2022/10/12 03:39:52;;;;;;;0.00;0.00;;;;;;;3.58;100.00;101371.94;5013868;28;20169;-74
2022/10/12 03:42:17;;;;;;;0.00;0.00;;;;;;;3.66;100.00;101372.63;5013734;28;20188;-74
2022/10/12 03:44:42;;;;;;;0.00;0.00;;;;;;;3.69;100.00;101378.34;5013730;28;20176;-74
2022/10/12 03:47:07;;;;;;;0.00;0.00;;;;;;;3.71;100.00;101370.81;5013287;28;20215;-74
2022/10/12 03:49:33;;;;;;;0.00;0.00;;;;;;;3.72;100.00;101361.66;5013818;28;20176;-74
2022/10/12 03:51:58;;;;;;;0.00;0.00;;;;;;;3.76;100.00;101375.50;5013679;28;20176;-74
2022/10/12 03:54:23;;;;;;;0.00;0.00;;;;;;;3.86;100.00;101373.78;5013500;28;20179;-74
2022/10/12 03:56:49;;;;;;;0.00;0.00;;;;;;;3.69;100.00;101369.44;5013237;28;20231;-75
2022/10/12 03:59:14;;;;;;;0.00;0.00;;;;;;;3.82;100.00;101366.44;5013508;28;20168;-75
2022/10/12 04:01:39;;;;;;;0.00;0.00;;;;;;;3.74;100.00;101375.75;5013320;28;20207;-75
2022/10/12 04:04:04;;;;;;;0.00;0.00;;;;;;;3.80;100.00;101369.38;5013220;28;20185;-74
2022/10/12 04:06:30;;;;;;;0.00;0.00;;;;;;;3.82;100.00;101369.13;5013001;28;20164;-75
2022/10/12 04:08:55;;;;;;;0.00;0.00;;;;;;;3.61;100.00;101359.00;5013467;28;20263;-75
2022/10/12 04:11:20;;;;;;;0.00;0.00;;;;;;;3.82;100.00;101359.13;5013181;28;20230;-74
2022/10/12 04:13:46;;;;;;;0.00;0.00;;;;;;;3.92;100.00;101355.81;5013221;28;20180;-74
2022/10/12 04:16:11;;;;;;;0.00;0.00;;;;;;;3.72;100.00;101358.94;5012815;28;20172;-74
2022/10/12 04:18:37;;;;;;;0.00;0.00;;;;;;;3.81;100.00;101349.41;5012251;28;20207;-74
2022/10/12 04:21:05;;;;;;;0.00;0.00;;;;;;;3.95;100.00;101349.91;5013037;28;20169;-74
2022/10/12 04:23:30;;;;;;;0.00;0.00;;;;;;;3.95;100.00;101349.91;5012974;28;20173;-74
2022/10/12 04:25:56;;;;;;;0.00;0.00;;;;;;;3.66;100.00;101357.22;5012744;28;20176;-75
2022/10/12 04:28:21;;;;;;;0.00;0.00;;;;;;;3.78;100.00;101355.28;5013305;28;20173;-75
2022/10/12 04:30:46;;;;;;;0.83;0.83;;;;;;;3.79;100.00;101356.13;5012918;28;20184;-75
2022/10/12 04:33:12;;;;;;;0.00;0.00;;;;;;;3.84;100.00;101358.88;5012820;28;20177;-75
2022/10/12 04:35:37;;;;;;;0.20;0.20;;;;;;;3.80;100.00;101358.56;5012533;28;20179;-74
2022/10/12 04:38:03;;;;;;;0.00;0.00;;;;;;;3.83;100.00;101360.78;5012625;28;20216;-75
2022/10/12 04:40:28;;;;;;;0.00;0.00;;;;;;;3.83;100.00;101349.97;5013089;28;20259;-74
2022/10/12 04:42:55;;;;;;;0.00;0.00;;;;;;;3.83;100.00;101349.97;5012632;28;20196;-74
2022/10/12 04:45:20;;;;;;;5.60;5.07;;;;;;;3.78;100.00;101351.78;5012491;28;20271;-75
2022/10/12 04:47:46;;;;;;;0.00;0.00;;;;;;;3.73;100.00;101351.66;5012310;28;20255;-74
2022/10/12 04:50:11;;;;;;;0.00;0.00;;;;;;;3.74;100.00;101356.00;5012506;28;20709;-74
2022/10/12 04:52:36;;;;;;;0.00;0.00;;;;;;;3.68;100.00;101349.69;5012342;28;20180;-74
2022/10/12 04:55:02;;;;;;;0.00;0.00;;;;;;;3.64;100.00;101353.97;5012471;28;20177;-75
2022/10/12 04:57:27;;;;;;;0.00;0.00;;;;;;;3.49;100.00;101350.97;5012074;28;20266;-74
2022/10/12 04:59:53;;;;;;;0.87;0.87;;;;;;;3.39;100.00;101354.31;5012142;28;20173;-73
2022/10/12 05:02:18;;;;;;;0.00;0.00;;;;;;;3.41;100.00;101354.88;5012275;28;20203;-74
2022/10/12 05:04:43;;;;;;;0.00;0.00;;;;;;;3.45;100.00;101349.81;5012143;28;20185;-75
2022/10/12 05:07:09;;;;;;;0.00;0.00;;;;;;;3.48;100.00;101358.25;5012197;28;20180;-74
2022/10/12 05:09:34;;;;;;;0.00;0.00;;;;;;;3.47;100.00;101345.81;5012246;28;20703;-74
2022/10/12 05:11:59;;;;;;;0.00;0.00;;;;;;;3.43;100.00;101360.03;5012074;28;20176;-74
2022/10/12 05:14:24;;;;;;;0.00;0.00;;;;;;;3.28;100.00;101349.75;5012254;28;20187;-74
2022/10/12 05:16:50;;;;;;;0.00;0.00;;;;;;;2.89;100.00;101349.53;5011677;28;20223;-74
2022/10/12 05:19:15;;;;;;;0.00;0.00;;;;;;;3.14;100.00;101351.09;5011741;28;20187;-74
2022/10/12 05:21:41;;;;;;;0.00;0.00;;;;;;;3.32;100.00;101353.59;5011980;28;20184;-75
2022/10/12 05:24:07;;;;;;;0.00;0.00;;;;;;;3.42;100.00;101356.50;5011803;28;20260;-75
2022/10/12 05:26:32;;;;;;;0.00;0.00;;;;;;;3.45;100.00;101347.91;5011633;28;20180;-74
2022/10/12 05:28:57;;;;;;;0.00;0.00;;;;;;;3.48;100.00;101346.63;5011167;28;20177;-75
2022/10/12 05:31:23;;;;;;;0.00;0.00;;;;;;;3.47;100.00;101356.63;5011629;28;20188;-74
2022/10/12 05:33:48;;;;;;;0.00;0.00;;;;;;;3.47;100.00;101347.69;5011781;28;20176;-74
2022/10/12 05:36:13;;;;;;;0.13;0.13;;;;;;;3.46;100.00;101346.03;5011405;28;20181;-74
2022/10/12 05:38:39;;;;;;;0.00;0.00;;;;;;;3.45;100.00;101352.50;5011528;28;20303;-74
2022/10/12 05:41:04;;;;;;;0.00;0.00;;;;;;;3.41;100.00;101351.34;5011492;28;20184;-74
2022/10/12 05:43:29;;;;;;;0.00;0.00;;;;;;;3.38;100.00;101349.97;5011572;28;20176;-74
2022/10/12 05:45:55;;;;;;;0.10;0.10;;;;;;;3.33;100.00;101351.72;5011242;28;20180;-74
2022/10/12 05:48:20;;;;;;;0.00;0.00;;;;;;;3.26;100.00;101344.59;5011719;28;20184;-74
2022/10/12 05:50:45;;;;;;;0.00;0.00;;;;;;;3.27;100.00;101345.41;5011758;28;20176;-74
2022/10/12 05:53:11;;;;;;;0.00;0.00;;;;;;;3.29;100.00;101346.81;5027197;28;20192;-74
2022/10/12 05:55:36;;;;;;;0.00;0.00;;;;;;;3.24;100.00;101341.31;5011369;28;20188;-74
2022/10/12 05:58:01;;;;;;;9.60;4.50;;;;;;;3.22;100.00;101346.16;5011516;28;20208;-74
2022/10/12 06:00:27;;;;;;;0.23;0.17;;;;;;;3.15;100.00;101339.22;5012086;28;20545;-73
2022/10/12 06:02:52;;;;;;;3.10;2.37;;;;;;;3.22;100.00;101345.31;5012416;28;20188;-73
2022/10/12 06:05:17;;;;;;;0.00;0.00;;;;;;;3.28;100.00;101347.06;5011313;28;20181;-74
2022/10/12 06:07:42;;;;;;;0.00;0.00;;;;;;;3.23;100.00;101345.09;5011526;28;20176;-74
2022/10/12 06:10:08;;;;;;;0.00;0.00;;;;;;;3.29;100.00;101337.88;5011835;28;20627;-75
2022/10/12 06:12:33;;;;;;;0.00;0.00;;;;;;;3.50;100.00;101339.94;5011598;28;20264;-73
2022/10/12 06:14:59;;;;;;;0.00;0.00;;;;;;;3.62;100.00;101333.63;5011887;28;20624;-73
2022/10/12 06:17:24;;;;;;;0.00;0.00;;;;;;;3.28;100.00;101330.84;5014818;28;20744;-73
2022/10/12 06:19:49;;;;;;;0.00;0.00;;;;;;;3.26;100.00;101339.19;5010686;28;20315;-75
2022/10/12 06:22:15;;;;;;;0.00;0.00;;;;;;;3.38;100.00;101333.75;5009176;28;20187;-73
2022/10/12 06:24:40;;;;;;;0.00;0.00;;;;;;;3.51;100.00;101336.16;4992807;28;20192;-77
2022/10/12 06:27:05;;;;;;;0.00;0.00;;;;;;;3.66;100.00;101341.03;5010606;28;20223;-77
2022/10/12 06:29:31;;;;;;;0.93;0.73;;;;;;;3.69;100.00;101340.53;5010924;28;20184;-77
2022/10/12 06:31:56;;;;;;;0.00;0.00;;;;;;;3.71;100.00;101338.41;5010822;28;20216;-76
2022/10/12 06:34:21;;;;;;;0.00;0.00;;;;;;;3.73;100.00;101346.25;5009631;28;20192;-76
2022/10/12 06:36:48;;;;;;;0.00;0.00;;;;;;;3.73;100.00;101341.66;5009223;28;20204;-76
2022/10/12 06:39:14;;;;;;;0.00;0.00;;;;;;;3.77;100.00;101348.25;5010757;28;20187;-77
2022/10/12 06:41:40;;;;;;;0.00;0.00;;;;;;;3.82;100.00;101344.81;5010614;28;20176;-76
2022/10/12 06:44:05;;;;;;;0.00;0.00;;;;;;;3.87;100.00;101344.88;5010800;28;20188;-78
2022/10/12 06:46:30;;;;;;;0.00;0.00;;;;;;;3.93;100.00;101348.50;5010835;28;20181;-77
2022/10/12 06:48:56;;;;;;;0.00;0.00;;;;;;;4.04;100.00;101350.28;5011360;28;20566;-78
2022/10/12 06:51:21;;;;;;;0.57;0.57;;;;;;;4.12;100.00;101350.72;5011462;28;20476;-78
2022/10/12 06:53:46;;;;;;;0.00;0.00;;;;;;;4.17;100.00;101341.84;5011597;28;20194;-78
2022/10/12 06:56:12;;;;;;;0.00;0.00;;;;;;;4.16;100.00;101346.44;5011338;28;20176;-79
2022/10/12 06:58:38;;;;;;;0.00;0.00;;;;;;;4.12;100.00;101348.00;5009992;28;20212;-80
2022/10/12 07:01:05;;;;;;;0.00;0.00;;;;;;;4.16;100.00;101351.84;5010767;28;20185;-79
2022/10/12 07:03:31;;;;;;;0.00;0.00;;;;;;;4.17;100.00;101350.78;5010764;28;20188;-78
2022/10/12 07:06:11;;;;;;;0.00;0.00;;;;;;;4.32;100.00;101355.63;5025259;28;20180;-79
2022/10/12 07:08:36;;;;;;;0.00;0.00;;;;;;;4.38;100.00;101338.41;5030690;28;20179;-79
2022/10/12 07:11:03;;;;;;;0.00;0.00;;;;;;;4.39;100.00;101348.16;5030486;28;20175;-77
2022/10/12 07:13:30;;;;;;;0.00;0.00;;;;;;;4.38;100.00;101343.00;5030435;28;20179;-79
2022/10/12 07:15:55;;;;;;;0.23;0.23;;;;;;;4.50;100.00;101343.72;5030274;28;20655;-79
2022/10/12 07:18:20;;;;;;;0.00;0.00;;;;;;;4.59;100.00;101344.09;5028868;28;20214;-79
2022/10/12 07:20:46;;;;;;;0.00;0.00;;;;;;;4.61;100.00;101344.66;5030434;28;20266;-79
2022/10/12 07:23:11;;;;;;;0.00;0.00;;;;;;;4.60;100.00;101335.72;5030330;28;20172;-78
2022/10/12 07:25:37;;;;;;;0.00;0.00;;;;;;;4.62;100.00;101328.19;5019730;28;20251;-78
2022/10/12 07:28:04;;;;;;;0.00;0.00;;;;;;;4.73;100.00;101334.56;5010730;28;20168;-79
2022/10/12 07:30:29;;;;;;;0.00;0.00;;;;;;;4.86;100.00;101328.78;5013898;28;20500;-78
2022/10/12 07:32:55;;;;;;;0.00;0.00;;;;;;;4.98;100.00;101331.34;5004328;28;20187;-79
2022/10/12 07:35:20;;;;;;;0.00;0.00;;;;;;;5.03;100.00;101334.13;5010314;28;20244;-79
2022/10/12 07:37:47;;;;;;;0.10;0.10;;;;;;;5.12;100.00;101331.81;5010419;28;20240;-78
2022/10/12 07:40:13;;;;;;;0.00;0.00;;;;;;;5.15;100.00;101337.53;5010336;28;20684;-79
2022/10/12 07:42:38;;;;;;;0.00;0.00;;;;;;;5.26;100.00;101333.88;5010384;28;20268;-78
2022/10/12 07:45:03;;;;;;;0.00;0.00;;;;;;;5.38;100.00;101339.16;5009181;28;20672;-79
2022/10/12 07:47:29;;;;;;;0.40;0.40;;;;;;;5.53;100.00;101333.06;5010410;28;20257;-78
2022/10/12 07:49:54;;;;;;;0.00;0.00;;;;;;;5.61;100.00;101335.28;5010489;28;20238;-79
2022/10/12 07:52:19;;;;;;;0.87;0.87;;;;;;;5.70;100.00;101336.47;5010820;28;20177;-79
2022/10/12 07:54:45;;;;;;;0.00;0.00;;;;;;;5.84;100.00;101339.59;5013995;28;20183;-78
2022/10/12 07:57:10;;;;;;;0.00;0.00;;;;;;;5.96;100.00;101332.13;5013551;28;20695;-79
2022/10/12 07:59:35;;;;;;;0.00;0.00;;;;;;;6.02;100.00;101331.09;5014025;28;20705;-78
2022/10/12 08:02:00;;;;;;;0.00;0.00;;;;;;;6.08;100.00;101342.81;5013697;28;20177;-79
2022/10/12 08:04:26;;;;;;;0.00;0.00;;;;;;;6.22;100.00;101339.41;5013669;28;20199;-78
2022/10/12 08:06:51;;;;;;;0.00;0.00;;;;;;;6.34;100.00;101346.50;5028817;28;20201;-78
2022/10/12 08:09:16;;;;;;;0.00;0.00;;;;;;;6.41;100.00;101342.50;5013816;28;20173;-78
2022/10/12 08:11:42;;;;;;;0.00;0.00;;;;;;;6.53;100.00;101345.84;5013555;28;20215;-76
2022/10/12 08:14:15;;;;;;;0.00;0.00;;;;;;;6.70;100.00;101355.72;5013491;28;20640;-78
2022/10/12 08:16:44;;;;;;;0.00;0.00;;;;;;;6.87;100.00;101356.34;5013107;28;20177;-76
2022/10/12 08:19:10;;;;;;;0.00;0.00;;;;;;;7.01;100.00;101362.94;5013366;28;20173;-75
2022/10/12 08:21:35;;;;;;;0.00;0.00;;;;;;;7.10;100.00;101364.06;5013435;28;20199;-74
2022/10/12 08:24:00;;;;;;;0.00;0.00;;;;;;;7.21;100.00;101359.47;5012205;28;20180;-76
2022/10/12 08:26:26;;;;;;;0.00;0.00;;;;;;;7.38;100.00;101360.09;5013221;28;20169;-74
2022/10/12 08:28:51;;;;;;;0.00;0.00;;;;;;;7.56;100.00;101366.94;5013449;28;20179;-77
2022/10/12 08:31:17;;;;;;;0.00;0.00;;;;;;;7.77;100.00;101356.91;5013463;28;20181;-73
2022/10/12 08:33:42;;;;;;;0.00;0.00;;;;;;;7.99;100.00;101368.38;5013262;28;20550;-73
2022/10/12 08:36:10;;;;;;;0.00;0.00;;;;;;;8.14;100.00;101359.38;5013002;28;20226;-73
2022/10/12 08:38:37;;;;;;;0.00;0.00;;;;;;;8.28;100.00;101362.38;5012647;28;20216;-72
2022/10/12 08:41:40;;;;;;;0.00;0.00;;;;;;;8.35;100.00;101374.63;5017866;28;20179;-73
2022/10/12 08:44:24;;;;;;;0.00;0.00;;;;;;;8.43;100.00;101375.19;5032614;28;20639;-71
2022/10/12 08:46:56;;;;;;;0.20;0.20;;;;;;;8.56;98.59;101380.88;5032473;28;20556;-72
2022/10/12 08:49:26;;;;;;;0.00;0.00;;;;;;;8.67;97.39;101381.66;5031680;28;20307;-71
2022/10/12 08:51:54;;;;;;;0.10;0.10;;;;;;;8.70;95.84;101372.16;5032556;28;20172;-71
2022/10/12 08:54:22;;;;;;;0.00;0.00;;;;;;;8.77;96.03;101375.38;5032576;28;20675;-71
2022/10/12 08:56:52;;;;;;;0.00;0.00;;;;;;;8.81;96.61;101376.47;5032273;28;20179;-70
2022/10/12 08:59:18;;;;;;;0.00;0.00;;;;;;;8.92;96.24;101369.91;5032356;28;20191;-71
2022/10/12 09:02:21;;;;;;;0.00;0.00;;;;;;;8.92;95.43;101362.53;5032522;28;20172;-71
2022/10/12 09:04:55;;;;;;;0.00;0.00;;;;;;;8.99;94.71;101366.91;4969635;28;20229;-70
2022/10/12 09:07:35;;;;;;;0.00;0.00;;;;;;;9.12;94.92;101369.84;4970816;28;20761;-71
2022/10/12 09:10:34;;;;;;;0.00;0.00;;;;;;;9.22;94.54;101366.25;5008592;28;20222;-71
2022/10/12 09:13:18;;;;;;;2.97;2.73;;;;;;;9.37;93.62;101368.88;5018525;28;20199;-70
2022/10/12 09:15:56;;;;;;;0.00;0.00;;;;;;;9.34;92.93;101364.00;5009976;28;20188;-71
2022/10/12 09:18:38;;;;;;;0.00;0.00;;;;;;;9.49;93.43;101366.66;5011797;28;20204;-70
2022/10/12 09:21:06;;;;;;;0.00;0.00;;;;;;;9.63;92.78;101379.66;5011936;28;20249;-70
2022/10/12 09:23:38;;;;;;;0.00;0.00;;;;;;;9.70;91.79;101378.28;5012051;28;20217;-71
2022/10/12 09:26:17;;;;;;;0.33;0.13;;;;;;;9.81;91.94;101366.16;4993760;28;20238;-71
2022/10/12 09:28:45;;;;;;;0.07;0.07;;;;;;;9.93;91.88;101365.81;5011901;28;20191;-71
2022/10/12 09:31:48;;;;;;;0.00;0.00;;;;;;;10.02;89.91;101368.78;5011664;28;20180;-70
2022/10/12 09:34:13;;;;;;;0.83;0.83;;;;;;;10.17;90.16;101360.47;5011680;28;20180;-71
2022/10/12 09:36:40;;;;;;;0.00;0.00;;;;;;;10.20;88.91;101357.16;5011383;28;20177;-70
2022/10/12 09:39:17;;;;;;;1.03;0.30;;;;;;;10.17;87.74;101348.72;5011567;28;20185;-70
2022/10/12 09:41:45;;;;;;;0.00;0.00;;;;;;;10.31;88.48;101356.00;5012014;28;20176;-70
2022/10/12 09:44:21;;;;;;;0.20;0.20;;;;;;;10.57;88.13;101355.75;5011598;28;20176;-71
2022/10/12 09:46:54;;;;;;;0.00;0.00;;;;;;;10.66;87.28;101352.09;5011271;28;20598;-71
2022/10/12 09:49:19;;;;;;;0.73;0.57;;;;;;;10.75;85.95;101352.28;5011449;28;20263;-70
2022/10/12 09:51:45;;;;;;;1.13;0.67;;;;;;;10.81;85.22;101347.56;5011318;28;20279;-71
2022/10/12 09:54:18;;;;;;;0.00;0.00;;;;;;;10.87;84.00;101357.34;5011351;28;20173;-70
2022/10/12 09:56:49;;;;;;;0.27;0.17;;;;;;;10.93;83.04;101345.22;5010946;28;20269;-70
2022/10/12 09:59:30;;;;;;;0.00;0.00;;;;;;;11.07;81.10;101343.41;5011227;28;20429;-70
2022/10/12 10:02:10;;;;;;;0.00;0.00;;;;;;;11.22;81.41;101348.69;5011203;28;20168;-70
2022/10/12 10:04:37;;;;;;;0.10;0.03;;;;;;;11.31;79.92;101341.47;5011162;28;20180;-70
2022/10/12 10:07:21;;;;;;;0.07;0.07;;;;;;;11.47;79.64;101338.53;5010909;28;20267;-71
2022/10/12 10:10:01;;;;;;;1.30;1.20;;;;;;;11.54;79.18;101333.47;4993354;28;20525;-70
2022/10/12 10:12:27;;;;;;;0.83;0.67;;;;;;;11.69;79.02;101341.47;5011202;28;20176;-70
2022/10/12 10:14:57;;;;;;;0.03;0.03;;;;;;;11.69;77.51;101327.78;5010774;28;20196;-71
2022/10/12 10:17:30;;;;;;;0.00;0.00;;;;;;;11.85;77.50;101329.19;5010544;28;20211;-70
2022/10/12 10:19:56;;;;;;;0.10;0.10;;;;;;;12.04;76.25;101331.13;5010841;28;20652;-70
2022/10/12 10:22:22;;;;;;;0.10;0.10;;;;;;;12.26;75.84;101327.72;5010898;28;20520;-70
2022/10/12 10:24:53;;;;;;;0.00;0.00;;;;;;;12.45;74.65;101332.03;5010899;28;20178;-70
2022/10/12 10:27:29;;;;;;;0.00;0.00;;;;;;;12.54;73.90;101329.41;5010369;28;20178;-73
2022/10/12 10:30:09;;;;;;;0.00;0.00;;;;;;;12.54;71.80;101329.41;5010900;28;20280;-73
2022/10/12 10:32:34;;;;;;;0.00;0.00;;;;;;;12.75;71.32;101333.38;5010870;28;20184;-73
2022/10/12 10:35:16;;;;;;;0.00;0.00;;;;;;;12.88;71.33;101323.53;4993480;28;20176;-72
2022/10/12 10:37:44;;;;;;;0.00;0.00;;;;;;;12.85;69.96;101315.09;5010053;28;20274;-73
2022/10/12 10:40:23;;;;;;;0.00;0.00;;;;;;;12.96;70.99;101322.00;5001944;28;20185;-72
2022/10/12 10:43:00;;;;;;;0.00;0.00;;;;;;;13.13;70.42;101318.63;5011411;28;20211;-72
2022/10/12 10:45:41;;;;;;;0.00;0.00;;;;;;;13.30;70.03;101322.38;5010879;28;20184;-72
2022/10/12 10:48:09;;;;;;;0.00;0.00;;;;;;;13.40;69.09;101311.19;5024871;28;20639;-73
2022/10/12 10:50:40;;;;;;;0.63;0.63;;;;;;;13.57;67.43;101315.19;5018436;28;20181;-72
2022/10/12 10:53:17;;;;;;;0.00;0.00;;;;;;;13.74;67.37;101311.78;5010230;28;20220;-71
2022/10/12 10:56:04;;;;;;;0.07;0.07;;;;;;;13.83;67.21;101315.41;5010193;28;20208;-71
2022/10/12 10:58:50;;;;;;;1.47;1.37;;;;;;;13.83;68.02;101310.72;4991108;28;20288;-71
2022/10/12 11:01:32;;;;;;;0.83;0.20;;;;;;;14.13;65.71;101309.16;4990647;28;20231;-71
2022/10/12 11:04:09;;;;;;;0.00;0.00;;;;;;;14.05;64.95;101298.94;4990724;28;20207;-70
2022/10/12 11:06:41;;;;;;;7.20;1.00;;;;;;;14.20;64.50;101297.72;4990526;28;20187;-70
2022/10/12 11:09:13;;;;;;;0.00;0.00;;;;;;;14.18;64.16;101300.00;4990631;28;20654;-70
2022/10/12 11:11:40;;;;;;;0.00;0.00;;;;;;;14.22;64.39;101290.78;4990601;28;20232;-74
2022/10/12 11:14:19;;;;;;;2.27;1.07;;;;;;;14.28;63.44;101292.25;4990735;28;20181;-74
2022/10/12 11:16:51;;;;;;;1.27;0.90;;;;;;;14.31;63.95;101290.81;4990255;28;20260;-74
2022/10/12 11:19:29;;;;;;;0.20;0.20;;;;;;;14.26;63.09;101294.53;4990543;28;20245;-74
2022/10/12 11:22:04;;;;;;;0.00;0.00;;;;;;;14.21;63.25;101285.63;4990600;28;20252;-74
2022/10/12 11:25:06;;;;;;;0.93;0.93;;;;;;;14.17;63.82;101287.34;4990615;28;20173;-74
2022/10/12 11:27:39;;;;;;;0.00;0.00;;;;;;;14.44;62.68;101273.44;4990593;28;20533;-72
2022/10/12 11:30:12;;;;;;;0.00;0.00;;;;;;;14.56;62.52;101286.59;4994334;28;20571;-72
2022/10/12 11:32:47;;;;;;;0.90;0.90;;;;;;;14.58;61.72;101271.41;4994468;28;20196;-72
2022/10/12 11:35:46;;;;;;;0.00;0.00;;;;;;;14.58;60.91;101276.09;4994320;28;20257;-71
2022/10/12 11:38:21;;;;;;;0.00;0.00;;;;;;;14.47;60.17;101263.78;4985510;28;20897;-72